createdAt,value
2023-03-24T00:00:27.063Z,98.84
2023-03-24T00:02:54.084Z,99.69
2023-03-24T00:05:23.365Z,100.00
2023-03-24T00:07:54.766Z,100.00
2023-03-24T00:10:22.930Z,100.00
2023-03-24T00:12:50.713Z,100.00
2023-03-24T00:15:21.415Z,100.00
2023-03-24T00:17:52.605Z,100.00
2023-03-24T00:20:22.378Z,100.00
2023-03-24T00:22:56.557Z,100.00
2023-03-24T00:25:33.849Z,100.00
2023-03-24T00:28:01.427Z,100.00
2023-03-24T00:30:28.726Z,100.00
2023-03-24T00:32:58.995Z,100.00
2023-03-24T00:35:25.968Z,100.00
2023-03-24T00:37:52.847Z,100.00
2023-03-24T00:40:21.510Z,100.00
2023-03-24T00:42:49.973Z,100.00
2023-03-24T00:45:20.599Z,100.00
2023-03-24T00:47:50.093Z,100.00
2023-03-24T00:50:20.602Z,100.00
2023-03-24T00:52:49.037Z,100.00
2023-03-24T00:55:16.258Z,100.00
2023-03-24T00:57:50.171Z,100.00
2023-03-24T01:00:21.693Z,100.00
2023-03-24T01:02:54.327Z,100.00
2023-03-24T01:05:27.972Z,100.00
2023-03-24T01:08:03.277Z,100.00
2023-03-24T01:10:42.506Z,100.00
2023-03-24T01:13:10.328Z,100.00
2023-03-24T01:15:37.193Z,100.00
2023-03-24T01:18:04.189Z,100.00
2023-03-24T01:20:33.168Z,100.00
2023-03-24T01:23:01.850Z,100.00
2023-03-24T01:25:30.509Z,100.00
2023-03-24T01:27:57.546Z,100.00
2023-03-24T01:30:30.928Z,100.00
2023-03-24T01:32:58.346Z,100.00
2023-03-24T01:35:28.925Z,100.00
2023-03-24T01:37:57.468Z,100.00
2023-03-24T01:40:29.342Z,100.00
2023-03-24T01:42:57.265Z,100.00
2023-03-24T01:45:39.592Z,100.00
2023-03-24T01:48:21.925Z,100.00
2023-03-24T01:50:58.748Z,100.00
2023-03-24T01:53:26.348Z,100.00
2023-03-24T01:55:54.703Z,100.00
2023-03-24T01:58:22.169Z,100.00
2023-03-24T02:00:49.582Z,100.00
2023-03-24T02:03:20.967Z,100.00
2023-03-24T02:05:52.426Z,100.00
2023-03-24T02:08:32.820Z,100.00
2023-03-24T02:11:01.521Z,100.00
2023-03-24T02:13:28.849Z,100.00
2023-03-24T02:16:16.228Z,100.00
2023-03-24T02:18:58.308Z,100.00
2023-03-24T02:21:55.876Z,100.00
2023-03-24T02:25:01.005Z,100.00
2023-03-24T02:27:48.137Z,100.00
2023-03-24T02:30:59.889Z,100.00
2023-03-24T02:34:02.365Z,100.00
2023-03-24T02:36:48.947Z,100.00
2023-03-24T02:39:56.781Z,100.00
2023-03-24T02:42:48.958Z,100.00
2023-03-24T02:45:29.925Z,100.00
2023-03-24T02:48:23.508Z,100.00
2023-03-24T02:51:06.771Z,100.00
2023-03-24T02:53:49.832Z,100.00
2023-03-24T02:56:39.218Z,100.00
2023-03-24T02:59:12.049Z,100.00
2023-03-24T03:01:54.431Z,100.00
2023-03-24T03:04:34.210Z,100.00
2023-03-24T03:07:12.878Z,100.00
2023-03-24T03:09:47.828Z,100.00
2023-03-24T03:12:15.227Z,100.00
2023-03-24T03:14:49.132Z,100.00
2023-03-24T03:17:24.026Z,100.00
2023-03-24T03:19:58.478Z,100.00
2023-03-24T03:22:34.214Z,100.00
2023-03-24T03:25:03.395Z,100.00
2023-03-24T03:27:38.875Z,100.00
2023-03-24T03:30:18.334Z,100.00
2023-03-24T03:32:57.561Z,100.00
2023-03-24T03:35:36.732Z,100.00
2023-03-24T03:38:19.405Z,100.00
2023-03-24T03:41:12.732Z,100.00
2023-03-24T03:43:39.600Z,100.00
2023-03-24T03:46:07.296Z,100.00
2023-03-24T03:48:35.462Z,100.00
2023-03-24T03:51:12.858Z,100.00
2023-03-24T03:54:09.112Z,100.00
2023-03-24T03:56:38.299Z,100.00
2023-03-24T03:59:06.696Z,100.00
2023-03-24T04:01:37.290Z,100.00
2023-03-24T04:04:26.465Z,100.00
2023-03-24T04:07:15.499Z,100.00
2023-03-24T04:10:23.012Z,100.00
2023-03-24T04:13:08.702Z,100.00
2023-03-24T04:16:02.396Z,100.00
2023-03-24T04:18:44.780Z,100.00
2023-03-24T04:21:28.306Z,100.00
2023-03-24T04:24:29.034Z,100.00
2023-03-24T04:27:14.559Z,100.00
2023-03-24T04:30:16.521Z,100.00
2023-03-24T04:32:58.551Z,100.00
2023-03-24T04:35:33.208Z,100.00
2023-03-24T04:38:09.214Z,100.00
2023-03-24T04:40:41.775Z,100.00
2023-03-24T04:43:14.010Z,100.00
2023-03-24T04:45:41.682Z,100.00
2023-03-24T04:48:11.975Z,100.00
2023-03-24T04:50:43.120Z,100.00
2023-03-24T04:53:10.703Z,100.00
2023-03-24T04:55:49.556Z,100.00
2023-03-24T04:58:17.949Z,100.00
2023-03-24T05:00:45.384Z,100.00
2023-03-24T05:03:14.163Z,100.00
2023-03-24T05:05:47.030Z,100.00
2023-03-24T05:08:15.286Z,100.00
2023-03-24T05:10:42.739Z,100.00
2023-03-24T05:13:09.641Z,100.00
2023-03-24T05:15:36.563Z,100.00
2023-03-24T05:18:05.016Z,100.00
2023-03-24T05:20:32.430Z,100.00
2023-03-24T05:22:59.465Z,100.00
2023-03-24T05:25:26.329Z,100.00
2023-03-24T05:27:53.156Z,100.00
2023-03-24T05:30:20.522Z,100.00
2023-03-24T05:32:47.597Z,100.00
2023-03-24T05:35:14.974Z,100.00
2023-03-24T05:37:41.840Z,100.00
2023-03-24T05:40:09.885Z,100.00
2023-03-24T05:42:36.718Z,100.00
2023-03-24T05:45:04.137Z,100.00
2023-03-24T05:47:31.133Z,100.00
2023-03-24T05:49:57.952Z,100.00
2023-03-24T05:52:26.111Z,100.00
2023-03-24T05:54:54.267Z,100.00
2023-03-24T05:57:21.535Z,100.00
2023-03-24T05:59:48.344Z,100.00
2023-03-24T06:02:15.595Z,100.00
2023-03-24T06:04:46.636Z,100.00
2023-03-24T06:07:13.722Z,100.00
2023-03-24T06:09:46.896Z,100.00
2023-03-24T06:12:14.673Z,100.00
2023-03-24T06:14:41.549Z,100.00
2023-03-24T06:17:08.575Z,100.00
2023-03-24T06:19:38.574Z,100.00
2023-03-24T06:22:06.276Z,100.00
2023-03-24T06:24:34.712Z,100.00
2023-03-24T06:27:02.419Z,100.00
2023-03-24T06:29:31.122Z,100.00
2023-03-24T06:31:57.912Z,100.00
2023-03-24T06:34:25.233Z,100.00
2023-03-24T06:36:52.566Z,100.00
2023-03-24T06:39:19.429Z,100.00
2023-03-24T06:41:46.407Z,100.00
2023-03-24T06:44:13.729Z,100.00
2023-03-24T06:46:40.711Z,100.00
2023-03-24T06:49:07.783Z,100.00
2023-03-24T06:51:34.950Z,100.00
2023-03-24T06:54:01.968Z,100.00
2023-03-24T06:56:29.029Z,100.00
2023-03-24T06:58:56.690Z,100.00
2023-03-24T07:01:24.498Z,100.00
2023-03-24T07:03:51.585Z,100.00
2023-03-24T07:06:19.173Z,100.00
2023-03-24T07:08:47.059Z,100.00
2023-03-24T07:11:14.701Z,100.00
2023-03-24T07:13:42.041Z,100.00
2023-03-24T07:16:09.105Z,100.00
2023-03-24T07:18:36.074Z,100.00
2023-03-24T07:21:02.988Z,100.00
2023-03-24T07:23:30.413Z,100.00
2023-03-24T07:25:57.288Z,100.00
2023-03-24T07:28:24.263Z,100.00
2023-03-24T07:30:53.266Z,100.00
2023-03-24T07:33:24.247Z,100.00
2023-03-24T07:35:56.212Z,100.00
2023-03-24T07:38:24.476Z,100.00
2023-03-24T07:40:51.267Z,100.00
2023-03-24T07:43:18.125Z,100.00
2023-03-24T07:45:48.314Z,100.00
2023-03-24T07:48:15.443Z,100.00
2023-03-24T07:50:42.604Z,100.00
2023-03-24T07:53:09.820Z,100.00
2023-03-24T07:55:38.596Z,100.00
2023-03-24T07:58:06.233Z,100.00
2023-03-24T08:00:33.649Z,100.00
2023-03-24T08:03:00.952Z,100.00
2023-03-24T08:05:30.761Z,100.00
2023-03-24T08:07:58.534Z,100.00
2023-03-24T08:10:30.163Z,100.00
2023-03-24T08:12:59.005Z,100.00
2023-03-24T08:15:27.204Z,100.00
2023-03-24T08:17:56.384Z,100.00
2023-03-24T08:20:24.936Z,100.00
2023-03-24T08:22:54.083Z,100.00
2023-03-24T08:25:24.142Z,100.00
2023-03-24T08:27:52.052Z,100.00
2023-03-24T08:30:25.109Z,100.00
2023-03-24T08:32:58.219Z,100.00
2023-03-24T08:35:32.404Z,100.00
2023-03-24T08:38:01.127Z,100.00
2023-03-24T08:40:29.374Z,100.00
2023-03-24T08:42:59.902Z,100.00
2023-03-24T08:45:30.568Z,100.00
2023-03-24T08:48:01.348Z,100.00
2023-03-24T08:50:34.546Z,100.00
2023-03-24T08:53:02.474Z,100.00
2023-03-24T08:55:29.834Z,100.00
2023-03-24T08:57:57.304Z,100.00
2023-03-24T09:00:24.589Z,100.00
2023-03-24T09:02:54.270Z,100.00
2023-03-24T09:05:36.620Z,100.00
2023-03-24T09:08:08.286Z,100.00
2023-03-24T09:10:35.613Z,100.00
2023-03-24T09:13:04.540Z,100.00
2023-03-24T09:15:32.198Z,100.00
2023-03-24T09:17:59.747Z,100.00
2023-03-24T09:20:27.273Z,100.00
2023-03-24T09:22:54.301Z,100.00
2023-03-24T09:25:24.555Z,100.00
2023-03-24T09:27:52.108Z,100.00
2023-03-24T09:30:19.261Z,100.00
2023-03-24T09:32:47.037Z,100.00
2023-03-24T09:35:14.988Z,100.00
2023-03-24T09:37:44.063Z,100.00
2023-03-24T09:40:25.145Z,100.00
2023-03-24T09:43:07.047Z,100.00
2023-03-24T09:45:37.994Z,100.00
2023-03-24T09:48:31.648Z,100.00
2023-03-24T09:51:15.881Z,100.00
2023-03-24T09:54:04.049Z,100.00
2023-03-24T09:56:34.064Z,100.00
2023-03-24T09:59:16.403Z,100.00
2023-03-24T10:01:43.513Z,100.00
2023-03-24T10:04:22.849Z,100.00
2023-03-24T10:06:58.810Z,100.00
2023-03-24T10:09:49.096Z,100.00
2023-03-24T10:12:42.843Z,100.00
2023-03-24T10:15:48.341Z,100.00
2023-03-24T10:18:31.005Z,100.00
2023-03-24T10:21:20.751Z,100.00
2023-03-24T10:24:21.212Z,100.00
2023-03-24T10:27:15.352Z,100.00
2023-03-24T10:29:45.936Z,100.00
2023-03-24T10:32:20.827Z,100.00
2023-03-24T10:34:53.818Z,100.00
2023-03-24T10:37:21.126Z,100.00
2023-03-24T10:39:48.368Z,100.00
2023-03-24T10:42:21.766Z,100.00
2023-03-24T10:44:51.350Z,100.00
2023-03-24T10:47:28.145Z,100.00
2023-03-24T10:50:00.700Z,100.00
2023-03-24T10:52:41.892Z,100.00
2023-03-24T10:55:18.839Z,100.00
2023-03-24T10:57:49.816Z,100.00
2023-03-24T11:00:29.733Z,100.00
2023-03-24T11:03:06.062Z,100.00
2023-03-24T11:05:38.733Z,100.00
2023-03-24T11:08:36.908Z,100.00
2023-03-24T11:11:30.374Z,100.00
2023-03-24T11:14:01.491Z,100.00
2023-03-24T11:16:32.781Z,100.00
2023-03-24T11:19:06.094Z,100.00
2023-03-24T11:21:37.170Z,100.00
2023-03-24T11:24:15.708Z,100.00
2023-03-24T11:26:53.110Z,100.00
2023-03-24T11:29:25.604Z,100.00
2023-03-24T11:32:02.016Z,100.00
2023-03-24T11:34:42.389Z,100.00
2023-03-24T11:37:17.512Z,97.27
2023-03-24T11:39:44.648Z,96.75
2023-03-24T11:42:11.991Z,96.70
2023-03-24T11:44:38.969Z,96.71
2023-03-24T11:47:30.914Z,96.91
2023-03-24T11:50:09.011Z,94.17
2023-03-24T11:53:19.341Z,94.96
2023-03-24T11:56:27.960Z,94.32
2023-03-24T11:59:26.702Z,94.26
2023-03-24T12:02:02.727Z,91.67
2023-03-24T12:04:46.733Z,92.21
2023-03-24T12:07:50.882Z,90.19
2023-03-24T12:10:41.239Z,89.39
2023-03-24T12:13:29.916Z,89.41
2023-03-24T12:16:24.233Z,89.14
2023-03-24T12:19:27.557Z,90.69
2023-03-24T12:22:21.072Z,90.28
2023-03-24T12:25:08.948Z,88.86
2023-03-24T12:28:10.311Z,88.73
2023-03-24T12:31:01.977Z,85.95
2023-03-24T12:33:54.662Z,85.51
2023-03-24T12:36:42.487Z,85.52
2023-03-24T12:39:12.761Z,84.03
2023-03-24T12:42:04.797Z,84.88
2023-03-24T12:45:12.154Z,83.92
2023-03-24T12:47:45.335Z,84.79
2023-03-24T12:50:56.503Z,86.45
2023-03-24T12:53:41.823Z,86.42
2023-03-24T12:56:16.438Z,86.75
2023-03-24T12:58:54.507Z,86.14
2023-03-24T13:01:40.489Z,86.79
2023-03-24T13:04:34.089Z,87.17
2023-03-24T13:07:11.877Z,88.42
2023-03-24T13:09:49.702Z,87.50
2023-03-24T13:12:41.214Z,88.19
2023-03-24T13:15:36.254Z,89.04
2023-03-24T13:18:11.951Z,89.31
2023-03-24T13:21:11.748Z,85.45
2023-03-24T13:23:47.038Z,86.67
2023-03-24T13:26:40.077Z,86.87
2023-03-24T13:29:48.944Z,87.55
2023-03-24T13:32:23.574Z,89.31
2023-03-24T13:35:35.021Z,90.67
2023-03-24T13:38:39.195Z,88.56
2023-03-24T13:41:07.802Z,88.36
2023-03-24T13:43:34.894Z,89.45
2023-03-24T13:46:16.298Z,88.16
2023-03-24T13:48:47.085Z,86.51
2023-03-24T13:51:26.647Z,88.40
2023-03-24T13:54:05.935Z,86.36
2023-03-24T13:57:03.564Z,86.33
2023-03-24T13:59:59.675Z,85.19
2023-03-24T14:02:29.618Z,83.99
2023-03-24T14:05:08.981Z,85.20
2023-03-24T14:07:43.103Z,86.20
2023-03-24T14:10:20.756Z,84.73
2023-03-24T14:12:58.280Z,83.57
2023-03-24T14:15:42.156Z,83.29
2023-03-24T14:18:24.194Z,83.38
2023-03-24T14:20:57.446Z,84.41
2023-03-24T14:23:49.299Z,84.14
2023-03-24T14:26:23.199Z,84.11
2023-03-24T14:28:53.184Z,84.48
2023-03-24T14:31:24.768Z,84.63
2023-03-24T14:33:54.603Z,85.93
2023-03-24T14:36:33.879Z,86.54
2023-03-24T14:39:31.383Z,87.40
2023-03-24T14:41:59.615Z,87.72
2023-03-24T14:44:51.936Z,86.01
2023-03-24T14:47:22.365Z,88.31
2023-03-24T14:49:53.336Z,89.20
2023-03-24T14:52:27.697Z,90.02
2023-03-24T14:55:07.636Z,89.48
2023-03-24T14:57:44.423Z,90.63
2023-03-24T15:00:34.116Z,90.39
2023-03-24T15:03:57.455Z,90.82
2023-03-24T15:06:24.851Z,91.97
2023-03-24T15:08:58.300Z,91.89
2023-03-24T15:11:35.030Z,91.66
2023-03-24T15:14:05.244Z,90.93
2023-03-24T15:16:35.753Z,91.85
2023-03-24T15:19:18.721Z,97.51
2023-03-24T15:22:03.260Z,92.82
2023-03-24T15:24:37.005Z,90.04
2023-03-24T15:27:06.867Z,92.07
2023-03-24T15:29:40.193Z,92.44
2023-03-24T15:32:10.131Z,93.03
2023-03-24T15:34:42.016Z,93.03
2023-03-24T15:37:34.009Z,93.72
2023-03-24T15:40:13.217Z,93.88
2023-03-24T15:42:46.238Z,95.67
2023-03-24T15:45:28.471Z,100.00
2023-03-24T15:47:56.571Z,100.00
2023-03-24T15:50:33.329Z,100.00
2023-03-24T15:53:18.601Z,100.00
2023-03-24T15:55:46.092Z,100.00
2023-03-24T15:58:24.431Z,100.00
2023-03-24T16:00:57.489Z,100.00
2023-03-24T16:03:26.630Z,100.00
2023-03-24T16:05:55.931Z,100.00
2023-03-24T16:08:28.358Z,100.00
2023-03-24T16:11:07.911Z,100.00
2023-03-24T16:13:35.449Z,100.00
2023-03-24T16:16:23.562Z,100.00
2023-03-24T16:18:51.118Z,100.00
2023-03-24T16:21:19.637Z,100.00
2023-03-24T16:23:47.950Z,100.00
2023-03-24T16:26:26.709Z,100.00
2023-03-24T16:28:55.107Z,100.00
2023-03-24T16:31:30.685Z,100.00
2023-03-24T16:33:58.266Z,100.00
2023-03-24T16:36:26.714Z,100.00
2023-03-24T16:38:56.643Z,100.00
2023-03-24T16:41:23.908Z,100.00
2023-03-24T16:43:50.988Z,100.00
2023-03-24T16:46:26.719Z,100.00
2023-03-24T16:48:53.955Z,100.00
2023-03-24T16:51:21.573Z,100.00
2023-03-24T16:53:48.581Z,100.00
2023-03-24T16:56:19.245Z,100.00
2023-03-24T16:58:48.125Z,100.00
2023-03-24T17:01:44.291Z,100.00
2023-03-24T17:04:20.177Z,100.00
2023-03-24T17:06:54.166Z,100.00
2023-03-24T17:09:22.260Z,100.00
2023-03-24T17:11:53.476Z,100.00
2023-03-24T17:14:20.526Z,100.00
2023-03-24T17:16:49.626Z,100.00
2023-03-24T17:19:20.582Z,100.00
2023-03-24T17:22:00.455Z,100.00
2023-03-24T17:24:28.632Z,100.00
2023-03-24T17:26:55.416Z,100.00
2023-03-24T17:29:23.459Z,100.00
2023-03-24T17:31:50.437Z,100.00
2023-03-24T17:34:21.576Z,100.00
2023-03-24T17:36:50.264Z,100.00
2023-03-24T17:39:21.501Z,100.00
2023-03-24T17:41:48.403Z,100.00
2023-03-24T17:44:15.438Z,100.00
2023-03-24T17:46:42.253Z,100.00
2023-03-24T17:49:09.065Z,100.00
2023-03-24T17:51:36.209Z,100.00
2023-03-24T17:54:04.045Z,100.00
2023-03-24T17:56:31.084Z,100.00
2023-03-24T17:59:00.576Z,100.00
2023-03-24T18:01:29.442Z,100.00
2023-03-24T18:03:57.929Z,100.00
2023-03-24T18:06:25.178Z,98.18
2023-03-24T18:08:52.543Z,99.39
2023-03-24T18:11:19.734Z,99.11
2023-03-24T18:13:46.626Z,99.62
2023-03-24T18:16:21.313Z,98.56
2023-03-24T18:18:50.621Z,97.69
2023-03-24T18:21:18.579Z,99.03
2023-03-24T18:23:46.692Z,97.22
2023-03-24T18:26:16.297Z,97.40
2023-03-24T18:28:45.501Z,97.53
2023-03-24T18:31:15.808Z,97.03
2023-03-24T18:33:45.762Z,97.85
2023-03-24T18:36:16.495Z,97.44
2023-03-24T18:38:43.718Z,98.16
2023-03-24T18:41:12.874Z,96.90
2023-03-24T18:43:41.136Z,98.15
2023-03-24T18:46:09.989Z,96.64
2023-03-24T18:48:42.571Z,96.62
2023-03-24T18:51:11.097Z,96.44
2023-03-24T18:53:38.645Z,95.47
2023-03-24T18:56:06.998Z,95.74
2023-03-24T18:58:34.962Z,96.28
2023-03-24T19:01:11.051Z,95.99
2023-03-24T19:03:40.738Z,96.58
2023-03-24T19:06:12.140Z,97.94
2023-03-24T19:08:44.658Z,98.02
2023-03-24T19:11:13.230Z,96.67
2023-03-24T19:13:42.099Z,96.52
2023-03-24T19:16:10.550Z,98.19
2023-03-24T19:18:38.129Z,95.12
2023-03-24T19:21:06.776Z,95.66
2023-03-24T19:23:34.698Z,97.37
2023-03-24T19:26:02.162Z,95.92
2023-03-24T19:28:32.164Z,95.60
2023-03-24T19:31:06.907Z,96.92
2023-03-24T19:33:33.864Z,95.73
2023-03-24T19:36:00.742Z,94.69
2023-03-24T19:38:28.731Z,93.49
2023-03-24T19:40:56.026Z,94.83
2023-03-24T19:43:24.762Z,92.88
2023-03-24T19:45:56.107Z,93.82
2023-03-24T19:48:23.404Z,93.95
2023-03-24T19:50:52.682Z,95.40
2023-03-24T19:53:20.487Z,95.95
2023-03-24T19:55:47.788Z,95.58
2023-03-24T19:58:14.778Z,97.53
2023-03-24T20:00:41.849Z,95.81
2023-03-24T20:03:09.023Z,97.07
2023-03-24T20:05:36.278Z,94.97
2023-03-24T20:08:03.279Z,94.03
2023-03-24T20:10:30.298Z,93.80
2023-03-24T20:12:57.190Z,95.69
2023-03-24T20:15:23.973Z,95.02
2023-03-24T20:17:51.403Z,94.75
2023-03-24T20:20:18.307Z,95.11
2023-03-24T20:22:46.279Z,95.60
2023-03-24T20:25:16.998Z,94.17
2023-03-24T20:27:47.805Z,93.26
2023-03-24T20:30:17.746Z,92.55
2023-03-24T20:32:44.833Z,92.50
2023-03-24T20:35:12.557Z,92.62
2023-03-24T20:37:39.402Z,93.52
2023-03-24T20:40:09.556Z,91.69
2023-03-24T20:42:37.430Z,93.86
2023-03-24T20:45:06.777Z,94.28
2023-03-24T20:47:33.912Z,94.27
2023-03-24T20:50:01.260Z,94.10
2023-03-24T20:52:29.074Z,93.06
2023-03-24T20:54:56.563Z,92.90
2023-03-24T20:57:25.721Z,93.33
2023-03-24T20:59:52.674Z,93.84
2023-03-24T21:02:20.196Z,92.83
2023-03-24T21:04:47.236Z,91.60
2023-03-24T21:07:14.058Z,92.74
2023-03-24T21:09:40.971Z,92.78
2023-03-24T21:12:08.016Z,92.10
2023-03-24T21:14:34.975Z,92.06
2023-03-24T21:17:02.034Z,92.64
2023-03-24T21:19:29.055Z,92.98
2023-03-24T21:21:56.228Z,94.02
2023-03-24T21:24:24.192Z,93.99
2023-03-24T21:26:51.423Z,94.34
2023-03-24T21:29:18.312Z,92.06
2023-03-24T21:31:45.251Z,92.10
2023-03-24T21:34:12.151Z,91.94
2023-03-24T21:36:39.173Z,91.97
2023-03-24T21:39:07.734Z,92.74
2023-03-24T21:41:34.553Z,91.29
2023-03-24T21:44:01.383Z,90.16
2023-03-24T21:46:28.224Z,89.82
2023-03-24T21:48:59.233Z,90.30
2023-03-24T21:51:33.717Z,91.42
2023-03-24T21:54:03.858Z,91.22
2023-03-24T21:56:35.272Z,90.72
2023-03-24T21:59:02.334Z,90.95
2023-03-24T22:01:29.333Z,91.38
2023-03-24T22:03:58.820Z,91.73
2023-03-24T22:06:28.593Z,92.70
2023-03-24T22:08:58.202Z,92.42
2023-03-24T22:11:25.757Z,94.70
2023-03-24T22:13:53.006Z,92.70
2023-03-24T22:16:19.858Z,92.58
2023-03-24T22:18:47.451Z,93.64
2023-03-24T22:21:14.830Z,94.54
2023-03-24T22:23:42.829Z,95.75
2023-03-24T22:26:14.662Z,94.89
2023-03-24T22:28:43.389Z,95.00
2023-03-24T22:31:14.536Z,95.41
2023-03-24T22:33:41.644Z,96.29
2023-03-24T22:36:09.882Z,96.29
2023-03-24T22:38:37.074Z,96.31
2023-03-24T22:41:08.244Z,97.00
2023-03-24T22:43:36.236Z,97.48
2023-03-24T22:46:03.639Z,97.08
2023-03-24T22:48:30.728Z,96.76
2023-03-24T22:50:57.544Z,95.29
2023-03-24T22:53:24.397Z,95.63
2023-03-24T22:55:51.519Z,94.56
2023-03-24T22:58:18.529Z,94.96
2023-03-24T23:00:48.262Z,95.30
2023-03-24T23:03:15.572Z,96.67
2023-03-24T23:05:45.334Z,95.63
2023-03-24T23:08:14.557Z,96.38
2023-03-24T23:10:43.692Z,97.58
2023-03-24T23:13:10.860Z,98.96
2023-03-24T23:15:39.456Z,100.00
2023-03-24T23:18:06.460Z,100.00
2023-03-24T23:20:33.478Z,100.00
2023-03-24T23:23:01.416Z,100.00
2023-03-24T23:25:31.072Z,100.00
2023-03-24T23:27:58.820Z,100.00
2023-03-24T23:30:26.069Z,100.00
2023-03-24T23:32:53.450Z,100.00
2023-03-24T23:35:20.584Z,100.00
2023-03-24T23:37:48.285Z,100.00
2023-03-24T23:40:16.222Z,100.00
2023-03-24T23:42:48.726Z,100.00
2023-03-24T23:45:20.469Z,100.00
2023-03-24T23:47:50.806Z,100.00
2023-03-24T23:50:19.585Z,100.00
2023-03-24T23:52:47.068Z,100.00
2023-03-24T23:55:17.822Z,100.00
2023-03-24T23:57:45.461Z,100.00
